Wetterdaten: aktuell Samstag, 25.06.2022 19:10
Datum Zeit Temperatur Bodentemp. Luftfeuchte Luftdruck Niederschlag Windgeschw. Windrichtung Windrichtung Sonnenschein Nieder.dauer Evapotrans. Solarstrahl. Taupunkt Windchill Windböen
25.06.2022 19:10 25,2 °C 24,4 °C 72 % 1011,5 hPa 0,0 l/m² 3,6 km/h (1 Bft) NO 45 ° 14 min 0 min 0 mm 63 W/m² 19,8 °C 25,2 °C 9,0 km/h (2 Bft)
25.06.2022 18:10 25,9 °C 25,6 °C 64 % 1011,5 hPa 0,0 l/m² 7,2 km/h (2 Bft) O-NO 67 ° 4 min 0 min 0 mm 334 W/m² 18,6 °C 25,9 °C 10,8 km/h (2 Bft)
25.06.2022 17:10 27,5 °C 27,2 °C 56 % 1011,5 hPa 0,0 l/m² 7,2 km/h (2 Bft) O 90 ° 44 min 0 min 1 mm 221 W/m² 17,9 °C 27,5 °C 9,0 km/h (2 Bft)
25.06.2022 16:10 28,6 °C 27,8 °C 52 % 1011,5 hPa 0,0 l/m² 5,4 km/h (1 Bft) W-NW 292 ° 60 min 0 min 1 mm 844 W/m² 17,8 °C 28,6 °C 9,0 km/h (2 Bft)
25.06.2022 15:10 28,9 °C 28,9 °C 51 % 1011,5 hPa 0,0 l/m² 1,8 km/h (1 Bft) N 360 ° 60 min 0 min 1 mm 1002 W/m² 17,7 °C 28,9 °C 3,6 km/h (1 Bft)
25.06.2022 14:10 28,4 °C 29,4 °C 51 % 1011,6 hPa 0,0 l/m² 5,4 km/h (1 Bft) S-SW 202 ° 41 min 0 min 0 mm 1021 W/m² 17,3 °C 28,4 °C 9,0 km/h (2 Bft)
25.06.2022 13:10 27,3 °C 31,7 °C 56 % 1011,5 hPa 0,0 l/m² 1,8 km/h (1 Bft) O 90 ° 53 min 0 min 1 mm 350 W/m² 17,7 °C 27,3 °C 3,6 km/h (1 Bft)
25.06.2022 12:10 25,8 °C 29,4 °C 59 % 1011,8 hPa 0,0 l/m² 1,8 km/h (1 Bft) NW 315 ° 60 min 0 min 1 mm 916 W/m² 17,2 °C 25,8 °C 3,6 km/h (1 Bft)
25.06.2022 11:10 25,2 °C 26,1 °C 63 % 1011,7 hPa 0,0 l/m² 1,8 km/h (1 Bft) S 180 ° 60 min 0 min 0 mm 784 W/m² 17,6 °C 25,2 °C 3,6 km/h (1 Bft)
25.06.2022 10:10 23,2 °C 22,2 °C 75 % 1011,6 hPa 0,0 l/m² 1,8 km/h (1 Bft) SO 135 ° 60 min 0 min 0 mm 677 W/m² 18,5 °C 23,2 °C 5,4 km/h (1 Bft)
25.06.2022 09:10 21,7 °C 20,0 °C 82 % 1011,4 hPa 0,0 l/m² 3,6 km/h (1 Bft) SO 135 ° 48 min 0 min 0 mm 552 W/m² 18,5 °C 21,7 °C 5,4 km/h (1 Bft)
25.06.2022 08:10 19,4 °C 18,3 °C 91 % 1011,0 hPa 0,0 l/m² 0,0 km/h (0 Bft) S-SO 157 ° 43 min 0 min 0 mm 338 W/m² 17,9 °C 19,4 °C 1,8 km/h (1 Bft)
25.06.2022 07:10 17,5 °C 17,2 °C 97 % 1010,0 hPa 0,0 l/m² 0,0 km/h (0 Bft) W-SW 247 ° 29 min 0 min 0 mm 172 W/m² 17,0 °C 17,5 °C 1,8 km/h (1 Bft)
25.06.2022 06:10 17,1 °C 16,1 °C 96 % 1010,0 hPa 0,0 l/m² 1,8 km/h (1 Bft) SW 225 ° 0 min 0 min 0 mm 37 W/m² 16,5 °C 17,1 °C 3,6 km/h (1 Bft)
25.06.2022 05:10 17,2 °C 16,1 °C 96 % 1009,7 hPa 0,0 l/m² 0,0 km/h (0 Bft) N 0 ° 0 min 0 min 0 mm 12 W/m² 16,6 °C 17,2 °C 0,0 km/h (0 Bft)
25.06.2022 04:10 17,0 °C 16,1 °C 94 % 1009,4 hPa 0,0 l/m² 0,0 km/h (0 Bft) O 90 ° 0 min 0 min 0 mm 0 W/m² 16,0 °C 17,0 °C 1,8 km/h (1 Bft)
25.06.2022 03:10 17,3 °C 16,1 °C 94 % 1008,9 hPa 0,0 l/m² 0,0 km/h (0 Bft) N 0 ° 0 min 0 min 0 mm 0 W/m² 16,3 °C 17,3 °C 0,0 km/h (0 Bft)
25.06.2022 02:10 17,8 °C 16,7 °C 94 % 1008,4 hPa 0,0 l/m² 0,0 km/h (0 Bft) N 0 ° 0 min 0 min 0 mm 0 W/m² 16,8 °C 17,8 °C 0,0 km/h (0 Bft)
25.06.2022 01:10 18,4 °C 17,2 °C 92 % 1008,3 hPa 0,0 l/m² 0,0 km/h (0 Bft) N 0 ° 0 min 0 min 0 mm 0 W/m² 17,1 °C 18,4 °C 0,0 km/h (0 Bft)
25.06.2022 00:10 19,5 °C 18,3 °C 88 % 1007,9 hPa 0,0 l/m² 0,0 km/h (0 Bft) N 0 ° 0 min 0 min 0 mm 0 W/m² 17,5 °C 19,5 °C 0,0 km/h (0 Bft)
24.06.2022 23:10 20,5 °C 19,4 °C 84 % 1007,9 hPa 0,0 l/m² 1,8 km/h (1 Bft) N 360 ° 0 min 0 min 0 mm 0 W/m² 17,7 °C 20,5 °C 3,6 km/h (1 Bft)
24.06.2022 22:10 20,6 °C 18,9 °C 84 % 1007,4 hPa 0,0 l/m² 0,0 km/h (0 Bft) N-NO 22 ° 1 min 0 min 0 mm 5 W/m² 17,8 °C 20,6 °C 1,8 km/h (1 Bft)
24.06.2022 21:10 21,0 °C 20,0 °C 83 % 1006,7 hPa 0,0 l/m² 0,0 km/h (0 Bft) NO 45 ° 0 min 0 min 0 mm 23 W/m² 18,0 °C 21,0 °C 1,8 km/h (1 Bft)
24.06.2022 20:10 21,7 °C 21,1 °C 79 % 1006,2 hPa 0,0 l/m² 1,8 km/h (1 Bft) N-NW 337 ° 0 min 0 min 0 mm 40 W/m² 17,9 °C 21,7 °C 3,6 km/h (1 Bft)
24.06.2022 20:00 22,0 °C 21,7 °C 78 % 1006,2 hPa 0,0 l/m² 3,6 km/h (1 Bft) N-NW 337 ° 0 min 0 min 0 mm 49 W/m² 18,0 °C 22,0 °C 7,2 km/h (2 Bft)
_ Min-Zeit 04:00 02:30 17:01 20:00 - 20:04 - - - - - - 04:01 04:01 20:30
Minimum _ 16,9 °C 16,1 °C 47 % 1006,2 hPa - 0,0 km/h (0 Bft) - - - - - - 15,8 °C 16,9 °C 0,0 km/h (0 Bft)
_ Max-Zeit 15:26 13:39 06:55 12:00 20:00 15:17 - - 21:39 20:00 15:00 13:25 19:08 15:26 15:17
Maximum _ 29,5 °C 33,9 °C 97 % 1011,8 hPa 0,0 l/m² 12,6 km/h
S (3 Bft)
- - 1 min 0 min 1 mm 1069 W/m² 20,1 °C 29,5 °C 19,7 km/h
S (3 Bft)
Durchschnitt _ 22,1 °C 21,8 °C 77 % 1009,7 hPa #0,0 l/m² 2,5 km/h (1 Bft) S-SO - #9:36 h #0 min. #4,927 mm 514 W/m² 17,5 °C 22,1 °C 4,8 km/h (1 Bft)